Time;durP1;ratioP1;P1;durP2;ratioP2;P2;SDS_P1;SDS_P2;PMS_P1;PMS_P2;Temp;Humidity;BMP_temperature;BMP_pressure;BME280_temperature;BME280_humidity;BME280_pressure;Samples;Min_cycle;Max_cycle;Signal;HPM_P1;HPM_P2
2022/10/21 00:00:17;;;;;;;6.20;4.20;;;;;;;;;;5073614;28;20048;-76
2022/10/21 00:02:42;;;;;;;8.73;4.68;;;;;;;;;;5073480;28;20028;-76
2022/10/21 00:05:08;;;;;;;7.13;4.45;;;;;;;;;;5073800;28;20028;-76
2022/10/21 00:07:34;;;;;;;12.88;4.78;;;;;;;;;;5073771;28;20458;-76
2022/10/21 00:09:59;;;;;;;9.80;4.63;;;;;;;;;;5072398;28;20020;-75
2022/10/21 00:12:26;;;;;;;13.32;4.13;;;;;;;;;;5073344;28;20033;-75
2022/10/21 00:14:52;;;;;;;10.55;4.78;;;;;;;;;;5073582;28;20077;-75
2022/10/21 00:17:17;;;;;;;9.77;4.57;;;;;;;;;;5073552;28;20033;-75
2022/10/21 00:19:42;;;;;;;10.10;5.00;;;;;;;;;;5072013;28;20048;-74
2022/10/21 00:22:07;;;;;;;9.00;4.60;;;;;;;;;;5073443;28;20496;-76
2022/10/21 00:24:33;;;;;;;7.97;4.55;;;;;;;;;;5073309;28;20107;-76
2022/10/21 00:26:58;;;;;;;8.35;5.00;;;;;;;;;;5073265;28;20027;-76
2022/10/21 00:29:30;;;;;;;7.53;4.95;;;;;;;;;;5073567;28;20024;-77
2022/10/21 00:31:55;;;;;;;10.27;4.95;;;;;;;;;;5073361;28;20024;-76
2022/10/21 00:34:21;;;;;;;8.90;4.70;;;;;;;;;;5071854;28;20028;-75
2022/10/21 00:36:46;;;;;;;9.73;4.80;;;;;;;;;;5071813;28;20474;-75
2022/10/21 00:39:11;;;;;;;12.52;4.88;;;;;;;;;;5073117;28;20058;-75
2022/10/21 00:41:37;;;;;;;7.80;4.78;;;;;;;;;;5071685;28;20020;-77
2022/10/21 00:44:04;;;;;;;6.55;4.43;;;;;;;;;;5072984;28;20020;-75
2022/10/21 00:46:33;;;;;;;6.63;4.40;;;;;;;;;;5072974;28;20024;-76
2022/10/21 00:49:00;;;;;;;8.75;4.40;;;;;;;;;;5072972;28;20371;-75
2022/10/21 00:51:26;;;;;;;6.13;4.05;;;;;;;;;;5071868;28;20021;-75
2022/10/21 00:53:52;;;;;;;8.60;4.70;;;;;;;;;;5072821;28;20448;-75
2022/10/21 00:56:28;;;;;;;6.72;4.65;;;;;;;;;;5072883;28;20020;-75
2022/10/21 00:58:58;;;;;;;10.07;4.53;;;;;;;;;;5073173;28;20032;-75
2022/10/21 01:01:23;;;;;;;7.35;4.82;;;;;;;;;;5073229;28;20033;-75
2022/10/21 01:03:49;;;;;;;9.43;4.35;;;;;;;;;;5073885;28;20529;-76
2022/10/21 01:06:17;;;;;;;10.88;4.53;;;;;;;;;;5076953;28;20025;-76
2022/10/21 01:08:42;;;;;;;7.38;4.47;;;;;;;;;;5077123;28;20121;-76
2022/10/21 01:11:13;;;;;;;8.57;4.70;;;;;;;;;;5076877;28;20612;-75
2022/10/21 01:13:53;;;;;;;9.02;3.83;;;;;;;;;;5075888;28;20115;-75
2022/10/21 01:16:26;;;;;;;10.10;4.40;;;;;;;;;;5076741;28;20020;-75
2022/10/21 01:19:13;;;;;;;6.35;4.35;;;;;;;;;;5075404;28;20029;-76
2022/10/21 01:21:49;;;;;;;9.27;4.82;;;;;;;;;;5076579;28;20502;-75
2022/10/21 01:24:48;;;;;;;6.88;4.43;;;;;;;;;;5076866;28;20029;-76
2022/10/21 01:27:33;;;;;;;9.43;4.70;;;;;;;;;;5075353;28;20024;-75
2022/10/21 01:30:07;;;;;;;7.97;4.85;;;;;;;;;;5075313;28;20020;-76
2022/10/21 01:32:35;;;;;;;;;;;;;;;;;;5076832;28;20028;-76
2022/10/21 01:35:12;;;;;;;5.50;4.03;;;;;;;;;;5076654;28;20285;-76
2022/10/21 01:37:46;;;;;;;10.57;4.50;;;;;;;;;;5076619;28;20102;-76
2022/10/21 01:40:17;;;;;;;8.48;4.68;;;;;;;;;;5076313;28;20056;-76
2022/10/21 01:42:53;;;;;;;8.45;4.90;;;;;;;;;;5074900;28;20063;-76
2022/10/21 01:45:40;;;;;;;11.45;5.18;;;;;;;;;;5076388;28;20056;-76
2022/10/21 01:48:15;;;;;;;8.63;4.22;;;;;;;;;;5076193;28;20462;-76
2022/10/21 01:50:48;;;;;;;6.43;4.57;;;;;;;;;;5075926;28;20485;-76
2022/10/21 01:53:15;;;;;;;7.53;4.70;;;;;;;;;;5076311;28;20021;-76
2022/10/21 01:55:41;;;;;;;8.25;4.50;;;;;;;;;;5075947;28;20024;-75
2022/10/21 01:58:11;;;;;;;8.30;4.10;;;;;;;;;;5075950;28;20032;-76
2022/10/21 02:00:37;;;;;;;8.07;4.45;;;;;;;;;;5076234;28;20150;-76
2022/10/21 02:03:09;;;;;;;12.52;4.90;;;;;;;;;;5074548;28;20028;-75
2022/10/21 02:05:35;;;;;;;7.88;4.50;;;;;;;;;;5076198;28;20141;-76
2022/10/21 02:08:00;;;;;;;9.23;4.60;;;;;;;;;;5075788;28;20056;-76
2022/10/21 02:10:30;;;;;;;8.07;4.53;;;;;;;;;;5074470;28;20492;-76
2022/10/21 02:12:59;;;;;;;8.13;5.10;;;;;;;;;;5075700;28;20111;-76
2022/10/21 02:15:26;;;;;;;6.82;4.60;;;;;;;;;;5075068;28;20033;-76
2022/10/21 02:18:02;;;;;;;8.60;4.15;;;;;;;;;;5076077;28;20031;-76
2022/10/21 02:20:32;;;;;;;7.03;4.47;;;;;;;;;;5075878;28;20470;-76
2022/10/21 02:22:57;;;;;;;7.13;4.38;;;;;;;;;;5074191;28;20035;-76
2022/10/21 02:25:27;;;;;;;9.20;5.00;;;;;;;;;;5075463;28;20105;-76
2022/10/21 02:27:53;;;;;;;6.75;4.32;;;;;;;;;;5075393;28;20468;-75
2022/10/21 02:30:19;;;;;;;9.25;4.95;;;;;;;;;;5074282;28;20032;-75
2022/10/21 02:33:04;;;;;;;9.55;5.13;;;;;;;;;;5075421;28;20103;-76
2022/10/21 02:35:36;;;;;;;9.50;5.40;;;;;;;;;;5075559;28;20043;-76
2022/10/21 02:38:07;;;;;;;9.70;5.13;;;;;;;;;;5075193;28;20043;-76
2022/10/21 02:40:41;;;;;;;10.15;5.25;;;;;;;;;;5075356;28;20032;-76
2022/10/21 02:43:14;;;;;;;12.55;5.47;;;;;;;;;;5075715;28;20021;-76
2022/10/21 02:45:40;;;;;;;10.88;5.20;;;;;;;;;;5075160;28;20485;-76
2022/10/21 02:48:06;;;;;;;9.07;5.50;;;;;;;;;;5073728;28;20025;-76
2022/10/21 02:50:31;;;;;;;11.60;5.38;;;;;;;;;;5074862;28;20385;-76
2022/10/21 02:52:57;;;;;;;9.23;5.43;;;;;;;;;;5075239;28;20381;-76
2022/10/21 02:55:22;;;;;;;7.93;4.78;;;;;;;;;;5074891;28;20020;-76
2022/10/21 02:57:47;;;;;;;7.82;3.72;;;;;;;;;;5073526;28;20021;-76
2022/10/21 03:00:13;;;;;;;8.60;5.43;;;;;;;;;;5073525;28;20111;-76
2022/10/21 03:02:40;;;;;;;10.43;5.35;;;;;;;;;;5074598;28;20028;-76
2022/10/21 03:05:07;;;;;;;13.98;5.72;;;;;;;;;;5075274;28;20024;-76
2022/10/21 03:07:33;;;;;;;12.90;5.53;;;;;;;;;;5073356;28;20023;-75
2022/10/21 03:09:58;;;;;;;7.97;5.18;;;;;;;;;;5074845;28;20036;-76
2022/10/21 03:12:23;;;;;;;8.25;5.20;;;;;;;;;;5074781;28;20047;-76
2022/10/21 03:14:49;;;;;;;8.98;5.60;;;;;;;;;;5073192;28;20027;-75
2022/10/21 03:17:14;;;;;;;8.18;4.55;;;;;;;;;;5074419;28;20078;-76
2022/10/21 03:19:39;;;;;;;8.90;5.78;;;;;;;;;;5073103;28;20477;-75
2022/10/21 03:22:04;;;;;;;9.93;5.35;;;;;;;;;;5074507;28;20020;-75
2022/10/21 03:24:30;;;;;;;10.52;5.50;;;;;;;;;;5074419;28;20101;-76
2022/10/21 03:26:55;;;;;;;11.02;5.68;;;;;;;;;;5073614;28;20031;-75
2022/10/21 03:29:20;;;;;;;11.60;6.22;;;;;;;;;;5074234;28;20112;-76
2022/10/21 03:31:46;;;;;;;9.68;5.85;;;;;;;;;;5072789;28;20052;-76
2022/10/21 03:34:12;;;;;;;11.50;6.03;;;;;;;;;;5072876;28;20027;-76
2022/10/21 03:36:38;;;;;;;10.65;5.43;;;;;;;;;;5074453;28;20033;-75
2022/10/21 03:39:03;;;;;;;10.13;5.70;;;;;;;;;;5073379;28;20111;-76
2022/10/21 03:41:28;;;;;;;12.70;6.13;;;;;;;;;;5073833;28;20063;-76
2022/10/21 03:43:53;;;;;;;13.23;6.22;;;;;;;;;;5074145;28;20025;-76
2022/10/21 03:46:19;;;;;;;12.57;5.68;;;;;;;;;;5072581;28;20082;-76
2022/10/21 03:48:44;;;;;;;11.60;6.18;;;;;;;;;;5072624;28;20573;-76
2022/10/21 03:51:09;;;;;;;5.35;3.67;;;;;;;;;;5073686;28;20029;-77
2022/10/21 03:53:34;;;;;;;8.82;4.47;;;;;;;;;;5072442;28;20119;-76
2022/10/21 03:56:00;;;;;;;8.13;5.05;;;;;;;;;;5073614;28;20086;-76
2022/10/21 03:58:27;;;;;;;11.38;6.57;;;;;;;;;;5073653;28;20023;-75
2022/10/21 04:00:52;;;;;;;9.20;5.53;;;;;;;;;;5072384;28;20024;-75
2022/10/21 04:03:17;;;;;;;12.25;6.25;;;;;;;;;;5074332;28;20028;-75
2022/10/21 04:05:43;;;;;;;13.45;6.43;;;;;;;;;;5073812;28;20077;-76
2022/10/21 04:08:08;;;;;;;9.60;5.45;;;;;;;;;;5073490;28;20044;-76
2022/10/21 04:10:33;;;;;;;11.57;6.22;;;;;;;;;;5073443;28;20055;-76
2022/10/21 04:12:59;;;;;;;9.18;6.15;;;;;;;;;;5073378;28;20028;-76
2022/10/21 04:15:24;;;;;;;9.55;6.30;;;;;;;;;;5073527;28;20016;-76
2022/10/21 04:17:49;;;;;;;11.60;5.82;;;;;;;;;;5073543;28;20073;-75
2022/10/21 04:20:14;;;;;;;15.55;6.25;;;;;;;;;;5073658;28;20373;-76
2022/10/21 04:22:40;;;;;;;10.15;5.88;;;;;;;;;;5073247;28;20078;-77
2022/10/21 04:25:05;;;;;;;10.18;6.28;;;;;;;;;;5071973;28;20437;-76
2022/10/21 04:27:30;;;;;;;11.45;6.10;;;;;;;;;;5073487;28;20371;-75
2022/10/21 04:29:56;;;;;;;10.68;6.30;;;;;;;;;;5072197;28;20020;-77
2022/10/21 04:32:21;;;;;;;9.23;5.57;;;;;;;;;;5073147;28;20025;-76
2022/10/21 04:34:46;;;;;;;9.68;5.05;;;;;;;;;;5073135;28;20056;-76
2022/10/21 04:37:11;;;;;;;10.15;6.32;;;;;;;;;;5073083;28;20033;-75
2022/10/21 04:39:37;;;;;;;11.38;6.38;;;;;;;;;;5071816;28;20443;-75
2022/10/21 04:42:02;;;;;;;10.77;6.07;;;;;;;;;;5071709;28;20474;-75
2022/10/21 04:44:27;;;;;;;7.95;5.53;;;;;;;;;;5073027;28;20025;-75
2022/10/21 04:46:53;;;;;;;10.82;5.97;;;;;;;;;;5073239;28;20486;-75
2022/10/21 04:49:18;;;;;;;10.07;5.82;;;;;;;;;;5073292;28;20046;-75
2022/10/21 04:51:43;;;;;;;11.27;6.25;;;;;;;;;;5072960;28;20406;-76
2022/10/21 04:54:09;;;;;;;6.63;3.97;;;;;;;;;;5071724;28;20024;-75
2022/10/21 04:56:34;;;;;;;12.32;6.50;;;;;;;;;;5072819;28;20020;-76
2022/10/21 04:58:59;;;;;;;25.25;6.68;;;;;;;;;;5072837;28;20036;-75
2022/10/21 05:01:24;;;;;;;24.83;6.68;;;;;;;;;;5071585;28;20029;-76
2022/10/21 05:03:50;;;;;;;14.85;6.25;;;;;;;;;;5072992;28;20464;-76
2022/10/21 05:06:15;;;;;;;10.15;6.28;;;;;;;;;;5072862;28;20016;-75
2022/10/21 05:08:40;;;;;;;13.52;6.47;;;;;;;;;;5072798;28;20020;-75
2022/10/21 05:11:06;;;;;;;15.43;6.28;;;;;;;;;;5071538;28;20389;-75
2022/10/21 05:13:32;;;;;;;10.10;6.05;;;;;;;;;;5072615;28;20024;-75
2022/10/21 05:15:58;;;;;;;13.10;5.85;;;;;;;;;;5072743;28;20036;-76
2022/10/21 05:18:24;;;;;;;11.75;6.40;;;;;;;;;;5072964;28;20386;-76
2022/10/21 05:20:51;;;;;;;11.13;6.07;;;;;;;;;;5072609;28;20020;-76
2022/10/21 05:23:17;;;;;;;13.75;6.13;;;;;;;;;;5072766;28;20147;-76
2022/10/21 05:25:46;;;;;;;16.13;6.65;;;;;;;;;;5071563;28;20541;-75
2022/10/21 05:28:12;;;;;;;11.52;5.47;;;;;;;;;;5072634;28;20117;-76
2022/10/21 05:30:37;;;;;;;10.48;6.28;;;;;;;;;;5072748;28;20508;-76
2022/10/21 05:33:03;;;;;;;13.27;6.32;;;;;;;;;;5072482;28;20497;-76
2022/10/21 05:35:29;;;;;;;12.32;6.03;;;;;;;;;;5072897;28;20039;-76
2022/10/21 05:37:54;;;;;;;11.35;6.57;;;;;;;;;;5071090;28;20119;-76
2022/10/21 05:40:19;;;;;;;13.10;6.30;;;;;;;;;;5071167;28;20020;-76
2022/10/21 05:42:45;;;;;;;11.45;6.75;;;;;;;;;;5072416;28;20058;-76
2022/10/21 05:45:11;;;;;;;10.70;6.32;;;;;;;;;;5072373;28;20020;-76
2022/10/21 05:47:37;;;;;;;15.30;6.60;;;;;;;;;;5071188;28;20060;-75
2022/10/21 05:50:03;;;;;;;15.02;6.68;;;;;;;;;;5073846;28;20052;-76
2022/10/21 05:52:28;;;;;;;15.70;7.07;;;;;;;;;;5075853;28;20079;-76
2022/10/21 05:54:53;;;;;;;16.17;7.07;;;;;;;;;;5074616;28;20035;-76
2022/10/21 05:57:18;;;;;;;16.02;6.63;;;;;;;;;;5074873;28;20486;-76
2022/10/21 05:59:44;;;;;;;17.30;6.90;;;;;;;;;;5075966;28;20086;-76
2022/10/21 06:02:09;;;;;;;8.93;5.72;;;;;;;;;;5076040;28;20017;-76
2022/10/21 06:04:35;;;;;;;8.23;5.15;;;;;;;;;;5076077;28;20032;-75
2022/10/21 06:07:00;;;;;;;10.43;6.55;;;;;;;;;;5075749;28;20016;-75
2022/10/21 06:09:25;;;;;;;12.52;6.40;;;;;;;;;;5075933;28;20474;-75
2022/10/21 06:11:51;;;;;;;10.70;6.05;;;;;;;;;;5075591;28;20111;-74
2022/10/21 06:14:16;;;;;;;9.00;5.28;;;;;;;;;;5075659;28;20036;-74
2022/10/21 06:16:41;;;;;;;9.93;5.78;;;;;;;;;;5075578;28;20029;-74
2022/10/21 06:19:07;;;;;;;19.30;6.80;;;;;;;;;;5075774;28;20047;-75
2022/10/21 06:21:32;;;;;;;10.38;6.10;;;;;;;;;;5075440;28;20111;-74
2022/10/21 06:23:57;;;;;;;11.98;6.20;;;;;;;;;;5075979;28;20025;-74
2022/10/21 06:26:22;;;;;;;8.95;5.93;;;;;;;;;;5075436;28;20020;-74
2022/10/21 06:28:48;;;;;;;10.82;6.10;;;;;;;;;;5075679;28;20103;-74
2022/10/21 06:31:16;;;;;;;11.85;6.57;;;;;;;;;;5075454;28;20021;-74
2022/10/21 06:33:41;;;;;;;12.07;6.90;;;;;;;;;;5075098;28;20028;-75
2022/10/21 06:36:07;;;;;;;10.43;5.10;;;;;;;;;;5075395;28;20115;-75
2022/10/21 06:38:32;;;;;;;11.75;6.15;;;;;;;;;;5075633;28;20037;-76
2022/10/21 06:41:02;;;;;;;11.60;6.55;;;;;;;;;;5075221;28;20047;-76
2022/10/21 06:43:28;;;;;;;10.65;6.32;;;;;;;;;;5074905;28;20390;-76
2022/10/21 06:45:58;;;;;;;9.20;6.10;;;;;;;;;;5075103;28;20020;-75
2022/10/21 06:48:24;;;;;;;12.73;6.03;;;;;;;;;;5075252;28;20031;-76
2022/10/21 06:50:49;;;;;;;11.45;6.65;;;;;;;;;;5075193;28;20032;-75
2022/10/21 06:53:14;;;;;;;11.60;6.32;;;;;;;;;;5073552;28;20111;-75
2022/10/21 06:55:39;;;;;;;9.30;5.50;;;;;;;;;;5074927;28;20385;-75
2022/10/21 06:58:05;;;;;;;9.93;5.50;;;;;;;;;;5074940;28;20026;-75
2022/10/21 07:00:30;;;;;;;8.88;4.70;;;;;;;;;;5073343;28;20060;-76
2022/10/21 07:02:55;;;;;;;11.75;6.18;;;;;;;;;;5074592;28;20363;-75
2022/10/21 07:05:20;;;;;;;10.32;5.90;;;;;;;;;;5074879;28;20024;-75
2022/10/21 07:07:46;;;;;;;11.48;6.07;;;;;;;;;;5074534;28;20024;-75
2022/10/21 07:10:11;;;;;;;16.23;5.50;;;;;;;;;;5074518;28;20021;-75
2022/10/21 07:12:37;;;;;;;7.93;5.55;;;;;;;;;;5074805;28;20052;-75
2022/10/21 07:15:02;;;;;;;7.85;4.70;;;;;;;;;;5074500;28;20042;-75
2022/10/21 07:17:29;;;;;;;8.77;5.05;;;;;;;;;;5074366;28;20074;-75
2022/10/21 07:19:55;;;;;;;11.73;5.43;;;;;;;;;;5074666;28;20091;-75
2022/10/21 07:22:20;;;;;;;8.82;5.50;;;;;;;;;;5074194;28;20055;-76
2022/10/21 07:24:45;;;;;;;14.77;5.40;;;;;;;;;;5074229;28;20492;-75
2022/10/21 07:27:10;;;;;;;7.88;5.13;;;;;;;;;;5074201;28;20016;-76
2022/10/21 07:29:36;;;;;;;11.80;5.90;;;;;;;;;;5072875;28;20020;-75
2022/10/21 07:32:01;;;;;;;12.90;5.05;;;;;;;;;;5074316;28;20389;-75
2022/10/21 07:34:27;;;;;;;9.77;5.57;;;;;;;;;;5074141;28;20036;-75
2022/10/21 07:36:52;;;;;;;8.55;4.85;;;;;;;;;;5073939;28;20025;-75
2022/10/21 07:39:21;;;;;;;11.10;5.30;;;;;;;;;;5073945;28;20437;-76
2022/10/21 07:41:49;;;;;;;12.95;5.45;;;;;;;;;;5074062;28;20028;-76
2022/10/21 07:44:15;;;;;;;8.02;4.72;;;;;;;;;;5074087;28;20029;-75
2022/10/21 07:46:42;;;;;;;8.23;5.22;;;;;;;;;;5073828;28;20048;-75
2022/10/21 07:49:08;;;;;;;11.48;5.35;;;;;;;;;;5072438;28;20055;-75
2022/10/21 07:51:33;;;;;;;10.63;5.10;;;;;;;;;;5073628;28;20072;-75
2022/10/21 07:54:00;;;;;;;7.78;5.15;;;;;;;;;;5073662;28;20056;-75
2022/10/21 07:56:29;;;;;;;15.40;5.18;;;;;;;;;;5073609;28;20024;-75
2022/10/21 07:58:54;;;;;;;8.90;5.40;;;;;;;;;;5073681;28;20021;-76
2022/10/21 08:01:20;;;;;;;9.30;5.30;;;;;;;;;;5089589;28;20409;-75
2022/10/21 08:03:47;;;;;;;8.20;5.13;;;;;;;;;;5073411;28;20138;-75
2022/10/21 08:06:16;;;;;;;9.48;5.07;;;;;;;;;;5073528;28;20020;-76
2022/10/21 08:08:42;;;;;;;9.05;5.55;;;;;;;;;;5072193;28;20024;-76
2022/10/21 08:11:08;;;;;;;7.82;5.32;;;;;;;;;;5073276;28;20031;-76
2022/10/21 08:13:34;;;;;;;9.07;5.80;;;;;;;;;;5072769;28;20477;-75
2022/10/21 08:16:00;;;;;;;8.68;5.53;;;;;;;;;;5073230;28;20103;-75
2022/10/21 08:18:26;;;;;;;11.93;5.18;;;;;;;;;;5073252;28;20024;-75
2022/10/21 08:20:52;;;;;;;9.45;6.07;;;;;;;;;;5073175;28;20028;-74
2022/10/21 08:23:20;;;;;;;11.55;5.82;;;;;;;;;;5073090;28;20042;-76
2022/10/21 08:25:50;;;;;;;10.02;5.53;;;;;;;;;;5073239;28;20104;-76
2022/10/21 08:28:18;;;;;;;13.18;5.78;;;;;;;;;;5073092;28;20051;-76
2022/10/21 08:30:43;;;;;;;9.63;5.70;;;;;;;;;;5073288;28;20070;-75
2022/10/21 08:33:10;;;;;;;11.80;4.95;;;;;;;;;;5073500;28;20381;-75
2022/10/21 08:35:36;;;;;;;7.90;4.47;;;;;;;;;;5073069;28;20452;-76
2022/10/21 08:38:01;;;;;;;10.95;5.75;;;;;;;;;;5073442;28;20116;-75
2022/10/21 08:40:33;;;;;;;9.65;6.07;;;;;;;;;;5071818;28;20032;-76
2022/10/21 08:43:06;;;;;;;9.38;5.18;;;;;;;;;;5073174;28;20439;-75
2022/10/21 08:45:41;;;;;;;11.83;5.83;;;;;;;;;;5073035;28;20111;-75
2022/10/21 08:48:14;;;;;;;10.30;6.00;;;;;;;;;;5072923;28;20307;-76
2022/10/21 08:50:45;;;;;;;10.55;5.75;;;;;;;;;;5073059;28;20028;-75
2022/10/21 08:53:23;;;;;;;7.75;5.68;;;;;;;;;;5072724;28;20500;-75
2022/10/21 08:55:51;;;;;;;9.88;4.85;;;;;;;;;;5071759;28;20035;-77
2022/10/21 08:58:22;;;;;;;11.63;5.57;;;;;;;;;;5072801;28;20516;-75
2022/10/21 09:00:56;;;;;;;10.60;5.50;;;;;;;;;;5072712;28;20029;-75
2022/10/21 09:03:43;;;;;;;10.57;5.75;;;;;;;;;;5072708;28;20025;-75
2022/10/21 09:06:33;;;;;;;9.30;4.82;;;;;;;;;;5072927;28;20028;-75
2022/10/21 09:09:10;;;;;;;8.18;5.22;;;;;;;;;;5071422;28;20028;-76
2022/10/21 09:12:06;;;;;;;9.40;4.72;;;;;;;;;;5072849;28;20023;-76
2022/10/21 09:14:49;;;;;;;10.73;5.15;;;;;;;;;;5072997;28;20052;-76
2022/10/21 09:17:39;;;;;;;8.50;5.40;;;;;;;;;;5071388;28;20531;-76
2022/10/21 09:20:31;;;;;;;8.32;5.25;;;;;;;;;;5071307;28;20556;-75
2022/10/21 09:23:10;;;;;;;11.05;5.18;;;;;;;;;;5072817;28;20444;-75
2022/10/21 09:25:51;;;;;;;8.85;5.40;;;;;;;;;;5075172;28;20052;-76
2022/10/21 09:28:16;;;;;;;8.43;4.60;;;;;;;;;;5077119;28;20172;-76
2022/10/21 09:30:43;;;;;;;7.68;4.43;;;;;;;;;;5076556;28;20111;-74
2022/10/21 09:33:27;;;;;;;11.45;5.47;;;;;;;;;;5076440;28;20385;-76
2022/10/21 09:36:17;;;;;;;9.07;5.75;;;;;;;;;;5076287;28;20021;-76
2022/10/21 09:39:06;;;;;;;6.57;4.72;;;;;;;;;;5076345;28;20064;-76
2022/10/21 09:41:46;;;;;;;9.20;5.65;;;;;;;;;;5076558;28;20039;-75
2022/10/21 09:44:18;;;;;;;7.50;5.05;;;;;;;;;;5076288;28;20349;-75
2022/10/21 09:46:44;;;;;;;10.30;5.22;;;;;;;;;;5076028;28;20389;-75
2022/10/21 09:49:22;;;;;;;10.75;5.82;;;;;;;;;;5076155;28;20501;-76
2022/10/21 09:51:48;;;;;;;9.48;5.50;;;;;;;;;;5076344;28;20036;-75
2022/10/21 09:54:18;;;;;;;9.02;5.10;;;;;;;;;;5075941;28;20126;-76
2022/10/21 09:56:48;;;;;;;10.13;5.30;;;;;;;;;;5076142;28;20064;-76
2022/10/21 09:59:17;;;;;;;8.55;5.72;;;;;;;;;;5074635;28;20024;-76
2022/10/21 10:01:43;;;;;;;9.73;5.53;;;;;;;;;;5075694;28;20156;-75
2022/10/21 10:04:13;;;;;;;11.63;5.60;;;;;;;;;;5074623;28;20033;-75
2022/10/21 10:06:41;;;;;;;8.15;4.97;;;;;;;;;;5075775;28;20134;-75
2022/10/21 10:09:25;;;;;;;12.13;6.15;;;;;;;;;;5075810;28;20070;-74
2022/10/21 10:12:01;;;;;;;10.97;5.70;;;;;;;;;;5075622;28;20024;-76
2022/10/21 10:14:29;;;;;;;20.15;5.43;;;;;;;;;;5075637;28;20270;-75
2022/10/21 10:16:55;;;;;;;23.48;5.53;;;;;;;;;;5075398;28;20443;-73
2022/10/21 10:19:26;;;;;;;9.77;4.80;;;;;;;;;;5075531;28;20020;-74
2022/10/21 10:22:14;;;;;;;6.35;4.43;;;;;;;;;;5074104;28;20115;-75
2022/10/21 10:24:41;;;;;;;7.53;4.88;;;;;;;;;;5075454;28;20103;-76
2022/10/21 10:27:18;;;;;;;7.43;4.70;;;;;;;;;;5075658;28;20119;-76
2022/10/21 10:29:52;;;;;;;8.63;4.90;;;;;;;;;;5075623;28;20129;-75
2022/10/21 10:32:18;;;;;;;9.00;5.13;;;;;;;;;;5074039;28;20020;-76
2022/10/21 10:34:54;;;;;;;15.93;4.70;;;;;;;;;;5075192;28;20031;-75
2022/10/21 10:37:26;;;;;;;9.38;4.72;;;;;;;;;;5074719;28;20033;-75
2022/10/21 10:39:54;;;;;;;8.50;4.88;;;;;;;;;;5075409;28;20021;-75
2022/10/21 10:42:32;;;;;;;9.70;4.45;;;;;;;;;;5073708;28;20032;-75
2022/10/21 10:45:01;;;;;;;6.30;4.00;;;;;;;;;;5075240;28;20056;-77
2022/10/21 10:47:29;;;;;;;6.68;4.88;;;;;;;;;;5073777;28;20024;-77
2022/10/21 10:49:55;;;;;;;7.38;4.70;;;;;;;;;;5074847;28;20064;-75
2022/10/21 10:52:24;;;;;;;7.13;4.78;;;;;;;;;;5074759;28;20068;-76
2022/10/21 10:55:14;;;;;;;8.77;4.57;;;;;;;;;;5075044;28;20025;-76
2022/10/21 10:57:44;;;;;;;8.55;4.82;;;;;;;;;;5073572;28;20032;-75
2022/10/21 11:00:13;;;;;;;11.00;5.28;;;;;;;;;;5074600;28;20078;-75
2022/10/21 11:02:58;;;;;;;8.00;5.13;;;;;;;;;;5074702;28;20070;-74
2022/10/21 11:05:35;;;;;;;9.60;5.07;;;;;;;;;;5074811;28;20027;-76
2022/10/21 11:08:20;;;;;;;9.20;4.90;;;;;;;;;;5074908;28;20067;-76
2022/10/21 11:10:49;;;;;;;10.75;5.40;;;;;;;;;;5067193;28;20125;-76
2022/10/21 11:13:17;;;;;;;11.38;5.85;;;;;;;;;;5074711;28;20385;-75
2022/10/21 11:15:48;;;;;;;11.32;6.03;;;;;;;;;;5073399;28;20032;-76
2022/10/21 11:18:27;;;;;;;8.13;5.53;;;;;;;;;;5073124;28;20028;-75
2022/10/21 11:21:08;;;;;;;7.43;5.18;;;;;;;;;;5074717;28;20028;-76
2022/10/21 11:24:14;;;;;;;7.32;5.10;;;;;;;;;;5074296;28;20043;-75
2022/10/21 11:27:01;;;;;;;14.60;5.90;;;;;;;;;;5074263;28;20031;-75
2022/10/21 11:29:48;;;;;;;9.55;5.43;;;;;;;;;;5074192;28;20036;-75
2022/10/21 11:32:41;;;;;;;11.82;6.10;;;;;;;;;;5072910;28;20021;-75
2022/10/21 11:35:44;;;;;;;7.15;4.30;;;;;;;;;;5074503;28;20020;-76
2022/10/21 11:38:46;;;;;;;7.15;5.40;;;;;;;;;;5068447;28;20039;-76
2022/10/21 11:41:21;;;;;;;10.00;5.78;;;;;;;;;;5072750;28;20020;-76
2022/10/21 11:44:02;;;;;;;8.93;5.30;;;;;;;;;;5073832;28;20036;-75
2022/10/21 11:46:44;;;;;;;9.05;6.47;;;;;;;;;;5074124;28;20021;-76
2022/10/21 11:49:20;;;;;;;9.32;6.25;;;;;;;;;;5073310;28;20043;-75
2022/10/21 11:52:09;;;;;;;10.02;7.32;;;;;;;;;;5073784;28;20032;-74
2022/10/21 11:54:57;;;;;;;10.50;7.13;;;;;;;;;;5074015;28;20474;-76
2022/10/21 11:57:37;;;;;;;9.75;6.90;;;;;;;;;;5073626;28;20036;-74
2022/10/21 12:00:17;;;;;;;14.00;7.70;;;;;;;;;;5072255;28;20405;-76
2022/10/21 12:03:04;;;;;;;13.45;7.30;;;;;;;;;;5073709;28;20040;-75
2022/10/21 12:05:32;;;;;;;13.00;7.22;;;;;;;;;;5072887;28;20036;-75
2022/10/21 12:08:09;;;;;;;11.50;6.63;;;;;;;;;;5073479;28;20028;-74
2022/10/21 12:10:52;;;;;;;10.52;6.63;;;;;;;;;;5072163;28;20025;-75
2022/10/21 12:13:43;;;;;;;11.50;7.00;;;;;;;;;;5072866;28;20029;-75
2022/10/21 12:16:15;;;;;;;12.75;6.40;;;;;;;;;;5081717;28;20033;-75
2022/10/21 12:18:43;;;;;;;9.65;6.53;;;;;;;;;;5073353;28;20063;-75
2022/10/21 12:21:19;;;;;;;13.65;6.60;;;;;;;;;;5073298;28;20028;-74
2022/10/21 12:23:52;;;;;;;14.25;6.55;;;;;;;;;;5071902;28;20055;-75
2022/10/21 12:26:27;;;;;;;11.88;7.20;;;;;;;;;;5073555;28;20489;-75
2022/10/21 12:29:11;;;;;;;10.27;7.22;;;;;;;;;;5071896;28;20444;-75
2022/10/21 12:32:08;;;;;;;15.88;6.53;;;;;;;;;;5073169;28;20516;-75
2022/10/21 12:34:34;;;;;;;10.85;6.82;;;;;;;;;;5064013;28;20032;-75
2022/10/21 12:37:00;;;;;;;10.40;6.88;;;;;;;;;;5073055;28;20550;-76
2022/10/21 12:39:32;;;;;;;12.63;6.80;;;;;;;;;;5073280;28;20525;-75
2022/10/21 12:42:05;;;;;;;14.65;7.40;;;;;;;;;;5071729;28;20064;-75
2022/10/21 12:44:32;;;;;;;11.75;8.07;;;;;;;;;;5071692;28;20024;-76
2022/10/21 12:47:03;;;;;;;14.20;8.73;;;;;;;;;;5073199;28;20024;-76
2022/10/21 12:49:34;;;;;;;14.40;9.70;;;;;;;;;;5072915;28;20509;-74
2022/10/21 12:52:22;;;;;;;18.70;10.98;;;;;;;;;;5072751;28;20024;-75
2022/10/21 12:54:56;;;;;;;16.77;10.23;;;;;;;;;;5072901;28;20017;-75
2022/10/21 12:57:30;;;;;;;16.73;8.73;;;;;;;;;;5073025;28;20458;-74
2022/10/21 13:00:26;;;;;;;19.17;11.77;;;;;;;;;;5078407;28;20473;-75
2022/10/21 13:02:55;;;;;;;21.30;10.35;;;;;;;;;;5078115;28;20551;-75
2022/10/21 13:05:40;;;;;;;20.05;12.32;;;;;;;;;;5079406;28;20072;-76
2022/10/21 13:08:18;;;;;;;19.48;12.88;;;;;;;;;;5079240;28;20028;-76
2022/10/21 13:11:03;;;;;;;23.17;14.00;;;;;;;;;;5078738;28;20482;-76
2022/10/21 13:13:35;;;;;;;21.00;13.13;;;;;;;;;;5067663;28;20428;-76
2022/10/21 13:16:18;;;;;;;24.42;14.98;;;;;;;;;;5079331;28;20056;-76
2022/10/21 13:18:55;;;;;;;29.33;15.13;;;;;;;;;;5078013;28;20024;-75
2022/10/21 13:21:28;;;;;;;30.77;16.17;;;;;;;;;;5078095;28;20028;-75
2022/10/21 13:23:56;;;;;;;23.67;14.70;;;;;;;;;;5079510;28;20027;-75
2022/10/21 13:26:25;;;;;;;24.48;15.18;;;;;;;;;;5077955;28;20025;-77
2022/10/21 13:29:26;;;;;;;28.92;15.93;;;;;;;;;;5079229;28;20020;-75
2022/10/21 13:32:12;;;;;;;21.95;13.50;;;;;;;;;;5076061;28;20047;-76
2022/10/21 13:34:40;;;;;;;26.90;14.48;;;;;;;;;;5078190;28;20453;-75
2022/10/21 13:37:14;;;;;;;26.65;14.73;;;;;;;;;;5079932;28;20119;-75
2022/10/21 13:39:41;;;;;;;22.95;14.77;;;;;;;;;;5079361;28;20028;-75
2022/10/21 13:42:10;;;;;;;25.60;15.80;;;;;;;;;;5079067;28;20385;-75
2022/10/21 13:44:39;;;;;;;22.17;13.93;;;;;;;;;;5079388;28;20020;-75
2022/10/21 13:47:26;;;;;;;25.85;15.85;;;;;;;;;;5079284;28;20381;-75
2022/10/21 13:49:54;;;;;;;22.08;13.32;;;;;;;;;;5079384;28;20103;-76
2022/10/21 13:52:20;;;;;;;21.10;13.32;;;;;;;;;;5078890;28;20082;-76
2022/10/21 13:54:52;;;;;;;22.55;14.25;;;;;;;;;;5078981;28;20036;-75
2022/10/21 13:57:17;;;;;;;21.17;13.07;;;;;;;;;;5079042;28;20048;-75
2022/10/21 13:59:43;;;;;;;20.23;12.75;;;;;;;;;;5078960;28;20477;-75
2022/10/21 14:02:23;;;;;;;21.65;12.60;;;;;;;;;;5077569;28;20489;-74
2022/10/21 14:04:48;;;;;;;17.95;12.70;;;;;;;;;;5079276;28;20024;-74
2022/10/21 14:07:18;;;;;;;19.33;12.00;;;;;;;;;;5078944;28;20048;-75
2022/10/21 14:09:46;;;;;;;19.58;11.95;;;;;;;;;;5078557;28;20375;-76
2022/10/21 14:12:25;;;;;;;17.85;12.23;;;;;;;;;;5075021;28;20032;-77
2022/10/21 14:14:52;;;;;;;15.82;10.27;;;;;;;;;;5075902;28;20487;-76
2022/10/21 14:17:22;;;;;;;18.33;11.18;;;;;;;;;;5075571;28;20051;-76
2022/10/21 14:19:51;;;;;;;16.00;9.98;;;;;;;;;;5074311;28;20170;-76
2022/10/21 14:22:23;;;;;;;15.38;10.77;;;;;;;;;;5075453;28;20422;-74
2022/10/21 14:24:52;;;;;;;17.05;11.27;;;;;;;;;;5075549;28;20398;-76
2022/10/21 14:27:24;;;;;;;17.48;11.13;;;;;;;;;;5074225;28;20073;-74
2022/10/21 14:29:49;;;;;;;16.85;11.48;;;;;;;;;;5075818;28;20060;-75
2022/10/21 14:32:19;;;;;;;16.38;10.52;;;;;;;;;;5075300;28;20043;-75
2022/10/21 14:34:57;;;;;;;16.75;10.68;;;;;;;;;;5075379;28;20028;-76
2022/10/21 14:37:22;;;;;;;18.45;10.88;;;;;;;;;;5075582;28;20028;-75
2022/10/21 14:39:47;;;;;;;14.20;10.10;;;;;;;;;;5075481;28;20028;-75
2022/10/21 14:42:19;;;;;;;15.43;11.18;;;;;;;;;;5075462;28;20028;-75
2022/10/21 14:44:46;;;;;;;14.48;9.93;;;;;;;;;;5073987;28;20065;-75
2022/10/21 14:47:49;;;;;;;16.77;10.88;;;;;;;;;;5075425;28;20027;-77
2022/10/21 14:50:20;;;;;;;20.92;10.30;;;;;;;;;;5075382;28;20029;-76
2022/10/21 14:52:46;;;;;;;13.27;10.02;;;;;;;;;;5075217;28;20024;-76